Vremea acum in Râșnov - Romania

Vrei sa afli care e starea vremii acum in Brasov - Romania? Dorim sa iti furnizam starea vremii pentru Brasov - Romania. Starea vremii Brasov - Romania pentru astazi.

Vremea acum in Râșnov

Temperatura: 14.6 °C

Este: Patchy rain nearby
Se simte ca: 15 °C
Innorat: 72 %
Precipitatii: 100 %
Presiune atmosferica: 1013 hPa
Umiditate: 64%
Vizibilitate: 9 km
Vantul bate din NW cu 5 km/h

Evolutia vremii in Râșnov pe ore

Ora: 17:00
Patchy light rain in area with thunder
Temperatura: 15.1°C
Sansa de precipitatii: 100%
Ora Descriere Temp Se simte Precipitatii Umiditate Vant
00:00Ceata9.5°9.5°100%99%NNW 4 KM/H
01:00Ceata9.3°9.1°100%99%N 4.7 KM/H
02:00Ceata8.6°85%99%N 5 KM/H
03:00Ceata8.7°8.1°100%99%N 5.8 KM/H
04:00Burniță ușoară8.5°7.9°100%99%NNW 5.4 KM/H
05:00Ceata8.3°7.9°100%99%NNW 4.7 KM/H
06:00Ceata8.1°7.7°75%99%NNW 4.7 KM/H
07:00Ceata7.9°7.8°100%98%NNW 4 KM/H
08:00Ceata8.7°8.5°85%96%N 4.3 KM/H
09:00Patchy rain nearby9.2°8.7°100%94%N 5.4 KM/H
10:00Patchy rain nearby9.5°8.9°100%92%N 6.1 KM/H
11:00Patchy rain nearby10.6°10.1°100%87%N 6.1 KM/H
12:00Senin15.5°15.5°0%50%N 10.8 KM/H
13:00Senin16.5°16.5°0%46%N 10.4 KM/H
14:00Patchy rain nearby16.7°16.7°87%45%N 9.4 KM/H
15:00Patchy rain nearby16.8°16.8°100%47%N 6.8 KM/H
16:00Patchy rain nearby15.8°15.8°100%52%NNW 5.8 KM/H
17:00Patchy light rain in area with thunder15.1°15.1°100%59%NNW 5.8 KM/H
18:00Patchy rain nearby14.6°15°100%64%NW 5 KM/H
19:00Patchy rain nearby14.3°14.3°100%66%NW 2.2 KM/H
20:00Patchy rain nearby8.9°8.9°100%78%SW 2.2 KM/H
21:00Patchy rain nearby7.3°6.3°86%83%SSW 6.1 KM/H
22:00Patchy rain nearby6.8°5.3°75%85%SSW 7.6 KM/H
23:00Patchy rain nearby6.2°4.5°70%88%SSW 8.3 KM/H




tutorials